South Wayne, Wisconsin
Current Conditions -  °F | °C
As of 2:55 AM on Saturday 25 Oct 2014 (Local Time) from KEFT Reporting Station
Haze Haze  
Wind Chill: 55°   Ceiling: 300
Heat Index: 55°   Visibility: 4mi
Dew Point: 55°   Wind: 14mph
Humidity: 100%   Direction: 270°W
Pressure: 29.91"   Gusts: 20mph
Location:  42.57°N, 89.88°W
Report Text: KEFT 250755Z AUTO 27012G17KT 4SM BR BKN003 OVC007 13/13 A2991 RMK AO2
Loading
Personal Weather Stations






























Interactive Weather Map
Tropical Storm Tracking
New forecast layout! Learn more

10-Day Weather Forecast

Advertisements
Track Severe Weather on mobile